sensor_id;sensor_type;location;lat;lon;timestamp;P1;durP1;ratioP1;P2;durP2;ratioP2
15528;SDS011;7866;52.280;9.500;2023-08-07T00:00:33;5.65;;;4.60;;
15528;SDS011;7866;52.280;9.500;2023-08-07T00:05:36;4.70;;;4.20;;
15528;SDS011;7866;52.280;9.500;2023-08-07T00:10:38;4.78;;;4.05;;
15528;SDS011;7866;52.280;9.500;2023-08-07T00:15:40;4.47;;;4.07;;
15528;SDS011;7866;52.280;9.500;2023-08-07T00:20:43;4.43;;;4.03;;
15528;SDS011;7866;52.280;9.500;2023-08-07T00:25:44;4.82;;;4.20;;
15528;SDS011;7866;52.280;9.500;2023-08-07T00:30:46;4.25;;;3.90;;
15528;SDS011;7866;52.280;9.500;2023-08-07T00:35:49;4.45;;;3.72;;
15528;SDS011;7866;52.280;9.500;2023-08-07T00:40:51;7.03;;;3.60;;
15528;SDS011;7866;52.280;9.500;2023-08-07T00:45:52;4.20;;;3.78;;
15528;SDS011;7866;52.280;9.500;2023-08-07T00:50:55;5.53;;;3.92;;
15528;SDS011;7866;52.280;9.500;2023-08-07T00:55:57;4.75;;;3.75;;
15528;SDS011;7866;52.280;9.500;2023-08-07T01:01:00;4.32;;;3.65;;
15528;SDS011;7866;52.280;9.500;2023-08-07T01:06:04;6.50;;;3.40;;
15528;SDS011;7866;52.280;9.500;2023-08-07T01:11:23;3.97;;;3.58;;
15528;SDS011;7866;52.280;9.500;2023-08-07T01:16:35;5.18;;;4.05;;
15528;SDS011;7866;52.280;9.500;2023-08-07T01:21:45;6.47;;;4.18;;
15528;SDS011;7866;52.280;9.500;2023-08-07T01:26:49;5.80;;;4.40;;
15528;SDS011;7866;52.280;9.500;2023-08-07T01:31:54;8.02;;;4.53;;
15528;SDS011;7866;52.280;9.500;2023-08-07T01:36:59;5.25;;;4.75;;
15528;SDS011;7866;52.280;9.500;2023-08-07T01:42:04;7.88;;;4.20;;
15528;SDS011;7866;52.280;9.500;2023-08-07T01:47:06;4.40;;;4.00;;
15528;SDS011;7866;52.280;9.500;2023-08-07T01:52:09;5.35;;;3.95;;
15528;SDS011;7866;52.280;9.500;2023-08-07T01:57:12;6.13;;;4.32;;
15528;SDS011;7866;52.280;9.500;2023-08-07T02:02:14;4.10;;;3.70;;
15528;SDS011;7866;52.280;9.500;2023-08-07T02:07:17;4.07;;;3.70;;
15528;SDS011;7866;52.280;9.500;2023-08-07T02:12:18;5.97;;;4.15;;
15528;SDS011;7866;52.280;9.500;2023-08-07T02:17:20;5.20;;;4.03;;
15528;SDS011;7866;52.280;9.500;2023-08-07T02:22:24;3.95;;;2.85;;
15528;SDS011;7866;52.280;9.500;2023-08-07T02:27:25;5.72;;;3.40;;
15528;SDS011;7866;52.280;9.500;2023-08-07T02:32:27;3.67;;;3.30;;
15528;SDS011;7866;52.280;9.500;2023-08-07T02:37:30;3.35;;;2.75;;
15528;SDS011;7866;52.280;9.500;2023-08-07T02:42:32;2.70;;;2.50;;
15528;SDS011;7866;52.280;9.500;2023-08-07T02:47:33;3.08;;;2.70;;
15528;SDS011;7866;52.280;9.500;2023-08-07T02:52:36;3.42;;;2.90;;
15528;SDS011;7866;52.280;9.500;2023-08-07T02:57:38;3.72;;;3.42;;
15528;SDS011;7866;52.280;9.500;2023-08-07T03:02:40;4.30;;;3.85;;
15528;SDS011;7866;52.280;9.500;2023-08-07T03:07:42;5.57;;;4.13;;
15528;SDS011;7866;52.280;9.500;2023-08-07T03:12:44;6.80;;;4.78;;
15528;SDS011;7866;52.280;9.500;2023-08-07T03:17:46;5.03;;;4.28;;
15528;SDS011;7866;52.280;9.500;2023-08-07T03:22:49;5.25;;;4.35;;
15528;SDS011;7866;52.280;9.500;2023-08-07T03:27:50;4.97;;;4.35;;
15528;SDS011;7866;52.280;9.500;2023-08-07T03:32:52;5.03;;;4.45;;
15528;SDS011;7866;52.280;9.500;2023-08-07T03:37:55;8.50;;;4.47;;
15528;SDS011;7866;52.280;9.500;2023-08-07T03:42:57;5.50;;;4.30;;
15528;SDS011;7866;52.280;9.500;2023-08-07T03:47:58;4.95;;;4.43;;
15528;SDS011;7866;52.280;9.500;2023-08-07T03:53:01;5.80;;;4.90;;
15528;SDS011;7866;52.280;9.500;2023-08-07T03:58:03;5.07;;;4.20;;
15528;SDS011;7866;52.280;9.500;2023-08-07T04:03:04;7.18;;;4.63;;
15528;SDS011;7866;52.280;9.500;2023-08-07T04:08:08;4.93;;;4.40;;
15528;SDS011;7866;52.280;9.500;2023-08-07T04:13:09;8.15;;;4.45;;
15528;SDS011;7866;52.280;9.500;2023-08-07T04:18:11;5.07;;;4.57;;
15528;SDS011;7866;52.280;9.500;2023-08-07T04:23:14;7.07;;;4.60;;
15528;SDS011;7866;52.280;9.500;2023-08-07T04:28:15;7.20;;;3.95;;
15528;SDS011;7866;52.280;9.500;2023-08-07T04:33:17;5.72;;;4.28;;
15528;SDS011;7866;52.280;9.500;2023-08-07T04:38:21;5.13;;;4.25;;
15528;SDS011;7866;52.280;9.500;2023-08-07T04:43:23;4.97;;;4.47;;
15528;SDS011;7866;52.280;9.500;2023-08-07T04:48:24;5.45;;;4.32;;
15528;SDS011;7866;52.280;9.500;2023-08-07T04:53:27;8.93;;;4.93;;
15528;SDS011;7866;52.280;9.500;2023-08-07T04:58:29;5.25;;;4.63;;
15528;SDS011;7866;52.280;9.500;2023-08-07T05:03:31;4.88;;;4.45;;
15528;SDS011;7866;52.280;9.500;2023-08-07T05:08:34;4.40;;;3.85;;
15528;SDS011;7866;52.280;9.500;2023-08-07T05:13:36;3.80;;;3.50;;
15528;SDS011;7866;52.280;9.500;2023-08-07T05:18:37;4.47;;;3.72;;
15528;SDS011;7866;52.280;9.500;2023-08-07T05:23:40;3.70;;;2.88;;
15528;SDS011;7866;52.280;9.500;2023-08-07T05:28:42;4.75;;;3.47;;
15528;SDS011;7866;52.280;9.500;2023-08-07T05:33:43;4.10;;;3.67;;
15528;SDS011;7866;52.280;9.500;2023-08-07T05:38:46;6.30;;;3.45;;
15528;SDS011;7866;52.280;9.500;2023-08-07T05:43:48;3.80;;;3.45;;
15528;SDS011;7866;52.280;9.500;2023-08-07T05:48:50;3.50;;;3.20;;
15528;SDS011;7866;52.280;9.500;2023-08-07T05:53:53;4.90;;;3.53;;
15528;SDS011;7866;52.280;9.500;2023-08-07T05:58:54;4.05;;;3.20;;
15528;SDS011;7866;52.280;9.500;2023-08-07T06:03:56;3.30;;;2.85;;
15528;SDS011;7866;52.280;9.500;2023-08-07T06:08:59;4.38;;;3.10;;
15528;SDS011;7866;52.280;9.500;2023-08-07T06:14:01;2.92;;;2.72;;
15528;SDS011;7866;52.280;9.500;2023-08-07T06:19:03;3.60;;;3.30;;
15528;SDS011;7866;52.280;9.500;2023-08-07T06:24:06;3.15;;;2.85;;
15528;SDS011;7866;52.280;9.500;2023-08-07T06:29:07;3.25;;;2.35;;
15528;SDS011;7866;52.280;9.500;2023-08-07T06:34:09;5.40;;;2.83;;
15528;SDS011;7866;52.280;9.500;2023-08-07T06:39:12;3.50;;;2.30;;
15528;SDS011;7866;52.280;9.500;2023-08-07T06:44:14;2.60;;;2.33;;
15528;SDS011;7866;52.280;9.500;2023-08-07T06:49:15;3.55;;;2.60;;
15528;SDS011;7866;52.280;9.500;2023-08-07T06:54:19;4.93;;;2.53;;
15528;SDS011;7866;52.280;9.500;2023-08-07T06:59:20;2.65;;;2.45;;
15528;SDS011;7866;52.280;9.500;2023-08-07T07:04:22;5.80;;;2.75;;
15528;SDS011;7866;52.280;9.500;2023-08-07T07:09:25;3.55;;;2.80;;
15528;SDS011;7866;52.280;9.500;2023-08-07T07:14:28;5.35;;;2.88;;
15528;SDS011;7866;52.280;9.500;2023-08-07T07:19:30;4.57;;;2.78;;
15528;SDS011;7866;52.280;9.500;2023-08-07T07:24:33;4.22;;;2.58;;
15528;SDS011;7866;52.280;9.500;2023-08-07T07:29:35;3.60;;;2.60;;
15528;SDS011;7866;52.280;9.500;2023-08-07T07:34:36;4.97;;;2.83;;
15528;SDS011;7866;52.280;9.500;2023-08-07T07:39:39;6.50;;;3.03;;
15528;SDS011;7866;52.280;9.500;2023-08-07T07:44:42;4.32;;;2.65;;
15528;SDS011;7866;52.280;9.500;2023-08-07T07:49:44;3.90;;;2.42;;
15528;SDS011;7866;52.280;9.500;2023-08-07T07:54:48;4.15;;;2.05;;
15528;SDS011;7866;52.280;9.500;2023-08-07T07:59:50;6.82;;;2.30;;
15528;SDS011;7866;52.280;9.500;2023-08-07T08:04:52;2.20;;;2.00;;
15528;SDS011;7866;52.280;9.500;2023-08-07T08:09:55;2.58;;;2.08;;
15528;SDS011;7866;52.280;9.500;2023-08-07T08:14:56;3.40;;;1.80;;
15528;SDS011;7866;52.280;9.500;2023-08-07T08:19:58;3.00;;;1.70;;
15528;SDS011;7866;52.280;9.500;2023-08-07T08:25:01;2.17;;;1.80;;
15528;SDS011;7866;52.280;9.500;2023-08-07T08:30:04;3.50;;;2.25;;
15528;SDS011;7866;52.280;9.500;2023-08-07T08:35:07;1.92;;;1.67;;
15528;SDS011;7866;52.280;9.500;2023-08-07T08:40:10;1.92;;;1.77;;
15528;SDS011;7866;52.280;9.500;2023-08-07T08:45:17;3.35;;;1.90;;
15528;SDS011;7866;52.280;9.500;2023-08-07T08:50:21;4.47;;;2.03;;
15528;SDS011;7866;52.280;9.500;2023-08-07T08:55:25;4.82;;;2.15;;
15528;SDS011;7866;52.280;9.500;2023-08-07T09:00:27;2.92;;;2.08;;
15528;SDS011;7866;52.280;9.500;2023-08-07T09:05:31;2.20;;;1.17;;
15528;SDS011;7866;52.280;9.500;2023-08-07T09:10:35;2.88;;;1.30;;
15528;SDS011;7866;52.280;9.500;2023-08-07T09:15:37;2.70;;;1.40;;
15528;SDS011;7866;52.280;9.500;2023-08-07T09:20:41;2.15;;;1.48;;
15528;SDS011;7866;52.280;9.500;2023-08-07T09:25:44;3.65;;;1.50;;
15528;SDS011;7866;52.280;9.500;2023-08-07T09:30:46;6.50;;;2.08;;
15528;SDS011;7866;52.280;9.500;2023-08-07T09:35:48;5.60;;;2.05;;
15528;SDS011;7866;52.280;9.500;2023-08-07T09:40:51;5.53;;;2.00;;
15528;SDS011;7866;52.280;9.500;2023-08-07T09:45:52;4.75;;;1.80;;
15528;SDS011;7866;52.280;9.500;2023-08-07T09:51:02;5.85;;;2.30;;
15528;SDS011;7866;52.280;9.500;2023-08-07T09:56:05;5.38;;;1.60;;
15528;SDS011;7866;52.280;9.500;2023-08-07T10:01:07;2.17;;;1.40;;
15528;SDS011;7866;52.280;9.500;2023-08-07T10:06:10;3.70;;;1.50;;
15528;SDS011;7866;52.280;9.500;2023-08-07T10:11:14;2.38;;;1.35;;
15528;SDS011;7866;52.280;9.500;2023-08-07T10:16:16;3.65;;;1.70;;
15528;SDS011;7866;52.280;9.500;2023-08-07T10:21:18;4.72;;;1.90;;
15528;SDS011;7866;52.280;9.500;2023-08-07T10:26:23;4.53;;;1.58;;
15528;SDS011;7866;52.280;9.500;2023-08-07T10:31:25;4.45;;;1.50;;
15528;SDS011;7866;52.280;9.500;2023-08-07T10:36:31;3.35;;;1.63;;
15528;SDS011;7866;52.280;9.500;2023-08-07T10:41:39;6.05;;;1.75;;
15528;SDS011;7866;52.280;9.500;2023-08-07T10:46:48;3.65;;;1.92;;
15528;SDS011;7866;52.280;9.500;2023-08-07T10:51:51;2.38;;;1.80;;
15528;SDS011;7866;52.280;9.500;2023-08-07T10:56:54;3.75;;;1.73;;
15528;SDS011;7866;52.280;9.500;2023-08-07T11:01:56;3.55;;;1.90;;
15528;SDS011;7866;52.280;9.500;2023-08-07T11:06:58;3.70;;;2.13;;
15528;SDS011;7866;52.280;9.500;2023-08-07T11:12:01;4.53;;;2.58;;
15528;SDS011;7866;52.280;9.500;2023-08-07T11:17:02;9.32;;;2.10;;
15528;SDS011;7866;52.280;9.500;2023-08-07T11:22:04;5.75;;;2.00;;
15528;SDS011;7866;52.280;9.500;2023-08-07T11:27:08;6.43;;;2.20;;
15528;SDS011;7866;52.280;9.500;2023-08-07T11:32:10;4.55;;;2.15;;
15528;SDS011;7866;52.280;9.500;2023-08-07T11:37:14;4.05;;;2.33;;
15528;SDS011;7866;52.280;9.500;2023-08-07T11:42:18;3.60;;;2.05;;
15528;SDS011;7866;52.280;9.500;2023-08-07T11:47:23;4.32;;;1.98;;
15528;SDS011;7866;52.280;9.500;2023-08-07T11:52:25;3.00;;;1.67;;
15528;SDS011;7866;52.280;9.500;2023-08-07T11:57:29;5.55;;;2.13;;
15528;SDS011;7866;52.280;9.500;2023-08-07T12:02:30;6.65;;;1.88;;
15528;SDS011;7866;52.280;9.500;2023-08-07T12:07:36;4.70;;;1.95;;
15528;SDS011;7866;52.280;9.500;2023-08-07T12:12:39;5.47;;;2.13;;
15528;SDS011;7866;52.280;9.500;2023-08-07T12:17:41;5.13;;;2.33;;
15528;SDS011;7866;52.280;9.500;2023-08-07T12:22:42;3.95;;;2.28;;
15528;SDS011;7866;52.280;9.500;2023-08-07T12:27:45;4.65;;;1.98;;
15528;SDS011;7866;52.280;9.500;2023-08-07T12:32:48;4.45;;;2.20;;
15528;SDS011;7866;52.280;9.500;2023-08-07T12:37:50;3.03;;;2.40;;
15528;SDS011;7866;52.280;9.500;2023-08-07T12:42:53;5.03;;;2.30;;
15528;SDS011;7866;52.280;9.500;2023-08-07T12:47:56;10.98;;;2.58;;
15528;SDS011;7866;52.280;9.500;2023-08-07T12:52:57;8.40;;;2.17;;
15528;SDS011;7866;52.280;9.500;2023-08-07T12:58:01;4.20;;;2.00;;
15528;SDS011;7866;52.280;9.500;2023-08-07T13:03:02;5.13;;;2.00;;
15528;SDS011;7866;52.280;9.500;2023-08-07T13:08:04;3.08;;;1.90;;
15528;SDS011;7866;52.280;9.500;2023-08-07T13:13:07;5.13;;;2.30;;
15528;SDS011;7866;52.280;9.500;2023-08-07T13:18:08;5.63;;;2.17;;
15528;SDS011;7866;52.280;9.500;2023-08-07T13:23:10;4.13;;;2.10;;
15528;SDS011;7866;52.280;9.500;2023-08-07T13:28:14;7.78;;;2.50;;
15528;SDS011;7866;52.280;9.500;2023-08-07T13:33:16;4.22;;;2.13;;
15528;SDS011;7866;52.280;9.500;2023-08-07T13:38:20;3.42;;;2.03;;
15528;SDS011;7866;52.280;9.500;2023-08-07T13:43:23;5.00;;;2.42;;
15528;SDS011;7866;52.280;9.500;2023-08-07T13:48:24;5.88;;;2.13;;
15528;SDS011;7866;52.280;9.500;2023-08-07T13:53:28;6.40;;;2.17;;
15528;SDS011;7866;52.280;9.500;2023-08-07T13:58:31;4.60;;;1.90;;
15528;SDS011;7866;52.280;9.500;2023-08-07T14:03:32;4.57;;;2.20;;
15528;SDS011;7866;52.280;9.500;2023-08-07T14:08:34;7.15;;;2.22;;
15528;SDS011;7866;52.280;9.500;2023-08-07T14:13:37;5.25;;;1.95;;
15528;SDS011;7866;52.280;9.500;2023-08-07T14:18:38;5.75;;;1.95;;
15528;SDS011;7866;52.280;9.500;2023-08-07T14:23:40;6.10;;;2.42;;
15528;SDS011;7866;52.280;9.500;2023-08-07T14:28:43;3.92;;;2.05;;
15528;SDS011;7866;52.280;9.500;2023-08-07T14:33:45;4.50;;;1.90;;
15528;SDS011;7866;52.280;9.500;2023-08-07T14:38:47;4.95;;;1.73;;
15528;SDS011;7866;52.280;9.500;2023-08-07T14:43:50;4.75;;;2.35;;
15528;SDS011;7866;52.280;9.500;2023-08-07T14:48:51;4.68;;;1.98;;
15528;SDS011;7866;52.280;9.500;2023-08-07T14:53:53;3.80;;;1.90;;
15528;SDS011;7866;52.280;9.500;2023-08-07T14:58:56;3.13;;;1.98;;
15528;SDS011;7866;52.280;9.500;2023-08-07T15:03:57;2.30;;;1.77;;
15528;SDS011;7866;52.280;9.500;2023-08-07T15:08:59;6.50;;;2.67;;
15528;SDS011;7866;52.280;9.500;2023-08-07T15:14:02;4.63;;;2.20;;
15528;SDS011;7866;52.280;9.500;2023-08-07T15:19:04;4.60;;;1.92;;
15528;SDS011;7866;52.280;9.500;2023-08-07T15:24:06;4.30;;;2.33;;
15528;SDS011;7866;52.280;9.500;2023-08-07T15:29:09;5.85;;;1.92;;
15528;SDS011;7866;52.280;9.500;2023-08-07T15:34:10;4.63;;;2.00;;
15528;SDS011;7866;52.280;9.500;2023-08-07T15:39:12;4.30;;;2.00;;
15528;SDS011;7866;52.280;9.500;2023-08-07T15:44:15;5.18;;;2.10;;
15528;SDS011;7866;52.280;9.500;2023-08-07T15:49:17;2.72;;;1.92;;
15528;SDS011;7866;52.280;9.500;2023-08-07T15:54:19;3.75;;;1.80;;
15528;SDS011;7866;52.280;9.500;2023-08-07T15:59:22;4.57;;;1.70;;
15528;SDS011;7866;52.280;9.500;2023-08-07T16:04:26;3.35;;;1.30;;
15528;SDS011;7866;52.280;9.500;2023-08-07T16:09:28;2.92;;;1.63;;
15528;SDS011;7866;52.280;9.500;2023-08-07T16:14:31;1.30;;;1.20;;
15528;SDS011;7866;52.280;9.500;2023-08-07T16:19:33;1.63;;;1.17;;
15528;SDS011;7866;52.280;9.500;2023-08-07T16:24:35;1.90;;;1.50;;
15528;SDS011;7866;52.280;9.500;2023-08-07T16:29:38;2.20;;;1.80;;
15528;SDS011;7866;52.280;9.500;2023-08-07T16:34:39;3.70;;;1.50;;
15528;SDS011;7866;52.280;9.500;2023-08-07T16:39:41;3.53;;;1.70;;
15528;SDS011;7866;52.280;9.500;2023-08-07T16:44:44;3.33;;;1.67;;
15528;SDS011;7866;52.280;9.500;2023-08-07T16:49:46;2.30;;;1.40;;
15528;SDS011;7866;52.280;9.500;2023-08-07T16:54:49;2.88;;;1.33;;
15528;SDS011;7866;52.280;9.500;2023-08-07T16:59:54;2.15;;;1.42;;
15528;SDS011;7866;52.280;9.500;2023-08-07T17:04:56;2.70;;;1.63;;
15528;SDS011;7866;52.280;9.500;2023-08-07T17:09:57;3.00;;;2.10;;
15528;SDS011;7866;52.280;9.500;2023-08-07T17:15:00;5.32;;;2.30;;
15528;SDS011;7866;52.280;9.500;2023-08-07T17:20:02;3.53;;;2.10;;
15528;SDS011;7866;52.280;9.500;2023-08-07T17:25:05;2.78;;;1.85;;
15528;SDS011;7866;52.280;9.500;2023-08-07T17:30:09;2.83;;;1.90;;
15528;SDS011;7866;52.280;9.500;2023-08-07T17:35:11;4.57;;;2.13;;
15528;SDS011;7866;52.280;9.500;2023-08-07T17:40:13;4.55;;;2.17;;
15528;SDS011;7866;52.280;9.500;2023-08-07T17:45:16;4.50;;;1.98;;
15528;SDS011;7866;52.280;9.500;2023-08-07T17:50:18;3.90;;;1.90;;
15528;SDS011;7866;52.280;9.500;2023-08-07T17:55:19;3.95;;;2.22;;
15528;SDS011;7866;52.280;9.500;2023-08-07T18:00:22;3.13;;;2.00;;
15528;SDS011;7866;52.280;9.500;2023-08-07T18:05:24;2.92;;;2.10;;
15528;SDS011;7866;52.280;9.500;2023-08-07T18:10:26;5.05;;;2.28;;
15528;SDS011;7866;52.280;9.500;2023-08-07T18:15:29;4.30;;;1.95;;
15528;SDS011;7866;52.280;9.500;2023-08-07T18:20:30;3.60;;;2.08;;
15528;SDS011;7866;52.280;9.500;2023-08-07T18:25:32;4.78;;;2.60;;
15528;SDS011;7866;52.280;9.500;2023-08-07T18:30:35;4.30;;;2.63;;
15528;SDS011;7866;52.280;9.500;2023-08-07T18:35:36;4.15;;;2.22;;
15528;SDS011;7866;52.280;9.500;2023-08-07T18:40:38;4.85;;;2.03;;
15528;SDS011;7866;52.280;9.500;2023-08-07T18:45:41;3.38;;;1.80;;
15528;SDS011;7866;52.280;9.500;2023-08-07T18:50:43;6.00;;;1.90;;
15528;SDS011;7866;52.280;9.500;2023-08-07T18:55:44;6.13;;;2.03;;
15528;SDS011;7866;52.280;9.500;2023-08-07T19:00:48;3.33;;;2.10;;
15528;SDS011;7866;52.280;9.500;2023-08-07T19:05:49;4.05;;;2.22;;
15528;SDS011;7866;52.280;9.500;2023-08-07T19:10:51;2.80;;;1.95;;
15528;SDS011;7866;52.280;9.500;2023-08-07T19:15:54;4.18;;;1.90;;
15528;SDS011;7866;52.280;9.500;2023-08-07T19:20:56;2.95;;;1.70;;
15528;SDS011;7866;52.280;9.500;2023-08-07T19:26:00;2.13;;;1.60;;
15528;SDS011;7866;52.280;9.500;2023-08-07T19:31:03;2.85;;;1.50;;
15528;SDS011;7866;52.280;9.500;2023-08-07T19:36:05;2.58;;;1.73;;
15528;SDS011;7866;52.280;9.500;2023-08-07T19:41:07;2.25;;;1.48;;
15528;SDS011;7866;52.280;9.500;2023-08-07T19:46:10;2.00;;;1.80;;
15528;SDS011;7866;52.280;9.500;2023-08-07T19:51:11;2.50;;;1.60;;
15528;SDS011;7866;52.280;9.500;2023-08-07T19:56:15;2.50;;;1.85;;
15528;SDS011;7866;52.280;9.500;2023-08-07T20:01:18;3.05;;;1.83;;
15528;SDS011;7866;52.280;9.500;2023-08-07T20:06:20;5.22;;;2.13;;
15528;SDS011;7866;52.280;9.500;2023-08-07T20:11:21;3.28;;;1.77;;
15528;SDS011;7866;52.280;9.500;2023-08-07T20:16:25;3.22;;;1.80;;
15528;SDS011;7866;52.280;9.500;2023-08-07T20:21:28;3.30;;;1.67;;
15528;SDS011;7866;52.280;9.500;2023-08-07T20:26:30;3.13;;;1.88;;
15528;SDS011;7866;52.280;9.500;2023-08-07T20:31:33;2.60;;;1.42;;
15528;SDS011;7866;52.280;9.500;2023-08-07T20:36:35;2.65;;;1.80;;
15528;SDS011;7866;52.280;9.500;2023-08-07T20:41:36;3.83;;;1.65;;
15528;SDS011;7866;52.280;9.500;2023-08-07T20:46:39;4.75;;;1.90;;
15528;SDS011;7866;52.280;9.500;2023-08-07T20:51:41;4.93;;;2.20;;
15528;SDS011;7866;52.280;9.500;2023-08-07T20:56:43;4.82;;;1.75;;
15528;SDS011;7866;52.280;9.500;2023-08-07T21:01:46;3.22;;;1.60;;
15528;SDS011;7866;52.280;9.500;2023-08-07T21:06:47;2.22;;;1.60;;
15528;SDS011;7866;52.280;9.500;2023-08-07T21:11:50;2.10;;;1.45;;
15528;SDS011;7866;52.280;9.500;2023-08-07T21:16:53;2.08;;;1.50;;
15528;SDS011;7866;52.280;9.500;2023-08-07T21:21:55;4.10;;;1.58;;
15528;SDS011;7866;52.280;9.500;2023-08-07T21:26:57;4.75;;;1.65;;
15528;SDS011;7866;52.280;9.500;2023-08-07T21:32:00;3.50;;;1.92;;
15528;SDS011;7866;52.280;9.500;2023-08-07T21:37:02;5.38;;;2.10;;
15528;SDS011;7866;52.280;9.500;2023-08-07T21:42:04;2.30;;;1.40;;
15528;SDS011;7866;52.280;9.500;2023-08-07T21:47:07;4.28;;;1.67;;
15528;SDS011;7866;52.280;9.500;2023-08-07T21:52:09;5.57;;;1.73;;
15528;SDS011;7866;52.280;9.500;2023-08-07T21:57:11;3.55;;;1.40;;
15528;SDS011;7866;52.280;9.500;2023-08-07T22:02:14;3.22;;;1.70;;
15528;SDS011;7866;52.280;9.500;2023-08-07T22:07:15;2.67;;;1.60;;
15528;SDS011;7866;52.280;9.500;2023-08-07T22:12:17;4.82;;;1.83;;
15528;SDS011;7866;52.280;9.500;2023-08-07T22:17:20;4.68;;;1.50;;
15528;SDS011;7866;52.280;9.500;2023-08-07T22:22:22;2.45;;;1.83;;
15528;SDS011;7866;52.280;9.500;2023-08-07T22:27:23;2.13;;;1.50;;
15528;SDS011;7866;52.280;9.500;2023-08-07T22:32:27;2.00;;;1.52;;
15528;SDS011;7866;52.280;9.500;2023-08-07T22:37:29;2.53;;;1.92;;
15528;SDS011;7866;52.280;9.500;2023-08-07T22:42:31;2.85;;;1.85;;
15528;SDS011;7866;52.280;9.500;2023-08-07T22:47:34;5.97;;;1.67;;
15528;SDS011;7866;52.280;9.500;2023-08-07T22:52:35;2.05;;;1.85;;
15528;SDS011;7866;52.280;9.500;2023-08-07T22:57:37;2.67;;;1.85;;
15528;SDS011;7866;52.280;9.500;2023-08-07T23:02:40;1.73;;;1.50;;
15528;SDS011;7866;52.280;9.500;2023-08-07T23:07:41;1.60;;;1.50;;
15528;SDS011;7866;52.280;9.500;2023-08-07T23:12:45;3.33;;;1.80;;
15528;SDS011;7866;52.280;9.500;2023-08-07T23:17:48;4.00;;;1.60;;
15528;SDS011;7866;52.280;9.500;2023-08-07T23:22:50;2.58;;;1.88;;
15528;SDS011;7866;52.280;9.500;2023-08-07T23:27:51;2.83;;;1.70;;
15528;SDS011;7866;52.280;9.500;2023-08-07T23:32:55;4.82;;;1.98;;
15528;SDS011;7866;52.280;9.500;2023-08-07T23:37:56;2.67;;;2.00;;
15528;SDS011;7866;52.280;9.500;2023-08-07T23:42:58;3.05;;;1.75;;
15528;SDS011;7866;52.280;9.500;2023-08-07T23:48:01;5.27;;;2.23;;
15528;SDS011;7866;52.280;9.500;2023-08-07T23:53:03;3.78;;;2.20;;
15528;SDS011;7866;52.280;9.500;2023-08-07T23:58:05;3.20;;;2.00;;
